Time;durP1;ratioP1;P1;durP2;ratioP2;P2;SDS_P1;SDS_P2;PMS_P1;PMS_P2;Temp;Humidity;BMP_temperature;BMP_pressure;BME280_temperature;BME280_humidity;BME280_pressure;Samples;Min_cycle;Max_cycle;Signal;HPM_P1;HPM_P2
2022/11/29 00:02:20;;;;;;;44.28;31.50;;;4.20;1.00;;;;;;6254167;22;20222;-81
2022/11/29 00:04:49;;;;;;;44.97;30.67;;;4.10;1.00;;;;;;6257715;22;20222;-79
2022/11/29 00:07:20;;;;;;;46.10;29.63;;;4.10;1.00;;;;;;6258863;22;20330;-81
2022/11/29 00:09:51;;;;;;;37.25;27.27;;;4.10;1.00;;;;;;6253955;22;20219;-82
2022/11/29 00:12:21;;;;;;;43.90;29.95;;;4.10;1.00;;;;;;6255818;22;20220;-81
2022/11/29 00:14:48;;;;;;;42.25;30.30;;;4.20;1.00;;;;;;6255799;22;20217;-81
2022/11/29 00:17:15;;;;;;;42.00;29.60;;;4.20;1.00;;;;;;6253080;22;20568;-80
2022/11/29 00:19:43;;;;;;;38.80;29.38;;;4.20;1.00;;;;;;6251237;22;20218;-81
2022/11/29 00:22:12;;;;;;;38.00;27.10;;;4.10;1.00;;;;;;6259361;22;20225;-81
2022/11/29 00:24:41;;;;;;;43.15;30.35;;;4.10;1.00;;;;;;6259542;22;20218;-82
2022/11/29 00:27:08;;;;;;;38.83;27.27;;;4.10;1.00;;;;;;6259870;22;20197;-82
2022/11/29 00:29:35;;;;;;;44.08;30.75;;;4.10;1.00;;;;;;6253377;22;20215;-81
2022/11/29 00:32:02;;;;;;;40.53;28.95;;;4.00;1.00;;;;;;6258134;22;20214;-80
2022/11/29 00:34:29;;;;;;;39.90;28.38;;;4.00;1.00;;;;;;6261509;22;20918;-81
2022/11/29 00:37:01;;;;;;;43.22;29.13;;;4.00;1.00;;;;;;6259983;22;20217;-79
2022/11/29 00:39:30;;;;;;;46.05;29.52;;;4.00;1.00;;;;;;6260170;22;20215;-81
2022/11/29 00:41:57;;;;;;;40.75;30.33;;;4.00;1.00;;;;;;6252668;22;20209;-81
2022/11/29 00:44:24;;;;;;;39.90;27.83;;;4.00;1.00;;;;;;6253204;22;20221;-81
2022/11/29 00:46:52;;;;;;;44.50;29.70;;;4.00;1.00;;;;;;6253614;22;20935;-81
2022/11/29 00:49:19;;;;;;;40.05;29.63;;;4.10;1.00;;;;;;6255016;22;20214;-81
2022/11/29 00:51:50;;;;;;;41.65;30.05;;;4.10;1.00;;;;;;6255546;22;20214;-82
2022/11/29 00:54:22;;;;;;;43.70;28.35;;;4.00;1.00;;;;;;6258257;22;20250;-80
2022/11/29 00:56:51;;;;;;;41.60;28.33;;;4.10;1.00;;;;;;6255564;22;21007;-81
2022/11/29 00:59:22;;;;;;;44.15;31.17;;;4.00;1.00;;;;;;6258672;22;20214;-81
2022/11/29 01:01:49;;;;;;;45.40;31.13;;;4.00;1.00;;;;;;6260449;22;20215;-79
2022/11/29 01:04:19;;;;;;;40.35;29.38;;;3.90;1.00;;;;;;6260821;22;20214;-81
2022/11/29 01:06:49;;;;;;;45.75;29.80;;;3.90;1.00;;;;;;6259994;22;20315;-82
2022/11/29 01:09:22;;;;;;;46.75;31.38;;;3.90;1.00;;;;;;6259340;22;20222;-80
2022/11/29 01:11:51;;;;;;;43.92;31.00;;;4.00;1.00;;;;;;6258965;22;20215;-81
2022/11/29 01:14:24;;;;;;;43.70;29.70;;;4.00;1.00;;;;;;6260075;22;20206;-81
2022/11/29 01:16:51;;;;;;;39.92;29.23;;;4.10;1.00;;;;;;6259419;22;20982;-79
2022/11/29 01:19:23;;;;;;;41.75;29.73;;;4.10;1.00;;;;;;6257983;22;20211;-81
2022/11/29 01:21:50;;;;;;;40.85;29.60;;;4.10;1.00;;;;;;6258342;22;20226;-80
2022/11/29 01:24:17;;;;;;;40.25;29.73;;;4.20;1.00;;;;;;6255911;22;20222;-79
2022/11/29 01:26:44;;;;;;;42.35;28.50;;;4.20;1.00;;;;;;6254398;22;20222;-80
2022/11/29 01:29:14;;;;;;;39.80;29.33;;;4.30;1.00;;;;;;6254293;22;20212;-81
2022/11/29 01:31:43;;;;;;;43.53;30.20;;;4.20;1.00;;;;;;6252797;22;20217;-84
2022/11/29 01:34:10;;;;;;;43.95;27.73;;;4.30;1.00;;;;;;6259950;22;20255;-81
2022/11/29 01:36:42;;;;;;;41.85;29.45;;;4.20;1.00;;;;;;6259928;22;20215;-81
2022/11/29 01:39:09;;;;;;;43.03;30.95;;;4.20;1.00;;;;;;6257713;22;20700;-80
2022/11/29 01:41:42;;;;;;;42.58;30.25;;;4.20;1.00;;;;;;6257627;22;20219;-81
2022/11/29 01:44:43;;;;;;;56.33;37.10;;;4.30;1.00;;;;;;6257915;22;20231;-78
2022/11/29 01:47:17;;;;;;;48.55;33.92;;;4.30;1.00;;;;;;6288502;22;20224;-80
2022/11/29 01:49:50;;;;;;;44.75;31.30;;;4.30;1.00;;;;;;6289829;22;20213;-80
2022/11/29 01:52:22;;;;;;;47.65;31.85;;;4.30;1.00;;;;;;6289169;22;20217;-81
2022/11/29 01:54:57;;;;;;;42.42;31.00;;;4.40;1.00;;;;;;6289166;22;20185;-80
2022/11/29 01:57:24;;;;;;;44.08;30.38;;;4.40;1.00;;;;;;6288961;22;20218;-80
2022/11/29 01:59:57;;;;;;;41.92;30.42;;;4.30;1.00;;;;;;6289211;22;20209;-79
2022/11/29 02:02:35;;;;;;;38.63;29.55;;;4.30;1.00;;;;;;6290411;22;20321;-80
2022/11/29 02:05:05;;;;;;;43.38;29.50;;;4.30;1.00;;;;;;6287553;22;20217;-79
2022/11/29 02:07:36;;;;;;;46.88;31.40;;;4.30;1.00;;;;;;6291275;22;20224;-80
2022/11/29 02:10:06;;;;;;;40.35;31.42;;;4.30;1.00;;;;;;6289702;22;20263;-80
2022/11/29 02:12:42;;;;;;;46.00;31.77;;;4.30;1.00;;;;;;6288421;22;20266;-81
2022/11/29 02:15:24;;;;;;;44.08;29.75;;;4.30;1.00;;;;;;6289419;22;20213;-81
2022/11/29 02:18:03;;;;;;;42.42;29.17;;;4.30;1.00;;;;;;6288342;22;20214;-81
2022/11/29 02:21:14;;;;;;;41.00;28.90;;;4.30;1.00;;;;;;6288720;22;20206;-84
2022/11/29 02:24:11;;;;;;;43.05;29.98;;;4.40;1.00;;;;;;6282482;22;20216;-80
2022/11/29 02:27:06;;;;;;;40.78;28.70;;;4.40;1.00;;;;;;6266459;22;20896;-82
2022/11/29 02:30:12;;;;;;;40.17;28.52;;;4.40;1.00;;;;;;6289215;22;20223;-80
2022/11/29 02:33:15;;;;;;;42.40;30.95;;;4.40;1.00;;;;;;6285396;22;20210;-79
2022/11/29 02:36:33;;;;;;;35.97;26.70;;;4.40;1.00;;;;;;6287289;22;20847;-81
2022/11/29 02:39:44;;;;;;;38.65;28.90;;;4.40;1.00;;;;;;6288414;22;20632;-80
2022/11/29 02:42:47;;;;;;;40.53;29.38;;;4.40;1.00;;;;;;6190001;23;20224;-80
2022/11/29 02:45:25;;;;;;;44.35;30.00;;;4.30;1.00;;;;;;6189571;23;20215;-80
2022/11/29 02:48:09;;;;;;;42.28;30.25;;;4.40;1.00;;;;;;6261406;22;20218;-80
2022/11/29 02:50:42;;;;;;;43.65;31.10;;;4.40;1.00;;;;;;6281741;22;20280;-82
2022/11/29 02:53:20;;;;;;;47.10;31.27;;;4.30;1.00;;;;;;6282421;22;20986;-81
2022/11/29 02:55:58;;;;;;;46.75;31.13;;;4.20;1.00;;;;;;6282921;22;20247;-80
2022/11/29 02:58:31;;;;;;;45.03;32.13;;;4.30;1.00;;;;;;6286117;22;20336;-81
2022/11/29 03:01:08;;;;;;;41.80;31.17;;;4.30;1.00;;;;;;6287684;22;20915;-81
2022/11/29 03:03:52;;;;;;;46.13;31.85;;;4.20;1.00;;;;;;6284888;22;20916;-80
2022/11/29 03:06:33;;;;;;;42.80;30.05;;;4.30;1.00;;;;;;6286196;22;20366;-79
2022/11/29 03:09:12;;;;;;;43.75;31.17;;;4.30;1.00;;;;;;6286900;22;20272;-80
2022/11/29 03:11:47;;;;;;;43.92;31.98;;;4.30;1.00;;;;;;6285983;22;20250;-80
2022/11/29 03:14:24;;;;;;;42.70;30.60;;;4.30;1.00;;;;;;6288517;22;20217;-80
2022/11/29 03:17:01;;;;;;;46.75;31.10;;;4.40;1.00;;;;;;6288554;22;20205;-81
2022/11/29 03:19:54;;;;;;;43.47;31.67;;;4.40;1.00;;;;;;6287700;22;20988;-81
2022/11/29 03:22:33;;;;;;;40.50;29.13;;;4.40;1.00;;;;;;6287916;22;20271;-81
2022/11/29 03:25:06;;;;;;;43.67;30.30;;;4.30;1.00;;;;;;6288430;22;20213;-80
2022/11/29 03:27:39;;;;;;;47.15;30.95;;;4.30;1.00;;;;;;6290460;22;20208;-80
2022/11/29 03:30:12;;;;;;;43.70;31.52;;;4.30;1.00;;;;;;6288397;22;20215;-80
2022/11/29 03:32:46;;;;;;;41.40;29.70;;;4.30;1.00;;;;;;6287746;22;20224;-79
2022/11/29 03:35:21;;;;;;;45.28;32.83;;;4.30;1.00;;;;;;6289174;22;20268;-81
2022/11/29 03:37:59;;;;;;;43.00;31.65;;;4.30;1.00;;;;;;6288183;22;20911;-82
2022/11/29 03:40:33;;;;;;;49.38;32.05;;;4.40;1.00;;;;;;6289434;22;20326;-80
2022/11/29 03:43:04;;;;;;;43.95;31.02;;;4.30;1.00;;;;;;6282362;22;20278;-81
2022/11/29 03:45:40;;;;;;;43.75;30.98;;;4.30;1.00;;;;;;6282883;22;20205;-81
2022/11/29 03:48:15;;;;;;;42.22;30.33;;;4.40;1.00;;;;;;6289028;22;20210;-79
2022/11/29 03:50:55;;;;;;;41.78;31.65;;;4.30;1.00;;;;;;6289009;22;20212;-80
2022/11/29 03:53:28;;;;;;;48.30;32.35;;;4.30;1.00;;;;;;6287979;22;20222;-79
2022/11/29 03:55:59;;;;;;;43.33;29.48;;;4.40;1.00;;;;;;6283322;22;20273;-78
2022/11/29 03:58:52;;;;;;;42.20;31.48;;;4.40;1.00;;;;;;6285499;22;20221;-79
2022/11/29 04:01:52;;;;;;;42.58;31.77;;;4.30;1.00;;;;;;6284067;22;20686;-80
2022/11/29 04:04:48;;;;;;;45.83;31.25;;;4.30;1.00;;;;;;6267864;22;20220;-78
2022/11/29 04:07:36;;;;;;;45.85;31.98;;;4.40;1.00;;;;;;6287883;22;20214;-80
2022/11/29 04:10:23;;;;;;;45.05;31.75;;;4.30;1.00;;;;;;6289994;22;20214;-79
2022/11/29 04:13:27;;;;;;;49.05;34.03;;;4.30;1.00;;;;;;6290594;22;20216;-79
2022/11/29 04:16:27;;;;;;;49.40;34.58;;;4.30;1.00;;;;;;6283060;22;20931;-81
2022/11/29 04:19:33;;;;;;;45.90;32.65;;;4.20;1.00;;;;;;6288496;22;20296;-77
2022/11/29 04:22:44;;;;;;;45.38;30.60;;;4.20;1.00;;;;;;6268513;22;20215;-78
2022/11/29 04:25:49;;;;;;;45.20;32.13;;;4.10;1.00;;;;;;6223553;22;20236;-79
2022/11/29 04:28:38;;;;;;;49.70;33.28;;;4.10;1.00;;;;;;6290263;22;20672;-81
2022/11/29 04:31:24;;;;;;;47.85;30.55;;;4.00;1.00;;;;;;6244641;22;20226;-79
2022/11/29 04:34:24;;;;;;;44.83;32.08;;;4.00;1.00;;;;;;6287990;22;20233;-78
2022/11/29 04:37:14;;;;;;;41.50;32.08;;;4.10;1.00;;;;;;6239876;22;20221;-79
2022/11/29 04:39:57;;;;;;;47.83;34.00;;;4.10;1.00;;;;;;6288165;22;20228;-81
2022/11/29 04:42:53;;;;;;;49.83;32.28;;;4.10;1.00;;;;;;6287298;22;20231;-79
2022/11/29 04:45:53;;;;;;;43.75;32.13;;;4.20;1.00;;;;;;6289608;22;20213;-80
2022/11/29 04:48:43;;;;;;;45.40;32.30;;;4.20;1.00;;;;;;6225058;22;20193;-80
2022/11/29 04:51:24;;;;;;;45.67;33.40;;;4.30;1.00;;;;;;6291230;22;20224;-81
2022/11/29 04:53:56;;;;;;;47.03;32.50;;;4.20;1.00;;;;;;6290253;22;20213;-81
2022/11/29 04:56:36;;;;;;;48.40;33.05;;;4.20;1.00;;;;;;6292021;22;20197;-81
2022/11/29 04:59:15;;;;;;;46.60;32.53;;;4.20;1.00;;;;;;6287688;22;20194;-80
2022/11/29 05:02:01;;;;;;;42.05;30.17;;;4.20;1.00;;;;;;6291697;22;20205;-81
2022/11/29 05:04:37;;;;;;;44.03;32.30;;;4.20;1.00;;;;;;6289941;22;20289;-82
2022/11/29 05:07:11;;;;;;;48.25;31.73;;;4.30;1.00;;;;;;6291275;22;20212;-79
2022/11/29 05:10:06;;;;;;;48.85;33.70;;;4.30;1.00;;;;;;6290348;22;20222;-80
2022/11/29 05:12:44;;;;;;;42.75;32.60;;;4.30;1.00;;;;;;6290472;22;20214;-80
2022/11/29 05:15:44;;;;;;;44.08;31.00;;;4.30;1.00;;;;;;6290164;22;20238;-79
2022/11/29 05:18:25;;;;;;;55.13;38.20;;;4.30;1.00;;;;;;6291079;22;20210;-81
2022/11/29 05:21:04;;;;;;;47.47;32.38;;;4.30;1.00;;;;;;6285699;22;20284;-81
2022/11/29 05:23:44;;;;;;;41.47;31.15;;;4.30;1.00;;;;;;6288094;22;20217;-78
2022/11/29 05:26:20;;;;;;;49.00;32.95;;;4.20;1.00;;;;;;6285120;22;20300;-80
2022/11/29 05:28:56;;;;;;;49.90;33.63;;;4.30;1.00;;;;;;6286280;22;20225;-79
2022/11/29 05:31:37;;;;;;;47.10;32.25;;;4.30;1.00;;;;;;6288766;22;20224;-80
2022/11/29 05:34:37;;;;;;;46.92;32.45;;;4.30;1.00;;;;;;6286776;22;20237;-81
2022/11/29 05:37:22;;;;;;;47.50;31.17;;;4.30;1.00;;;;;;6289573;22;20264;-80
2022/11/29 05:40:14;;;;;;;46.60;33.42;;;4.30;1.00;;;;;;6291665;22;20210;-84
2022/11/29 05:43:11;;;;;;;42.53;30.55;;;4.40;1.00;;;;;;6265920;22;20204;-80
2022/11/29 05:45:49;;;;;;;47.35;32.97;;;4.40;1.00;;;;;;6264325;22;20191;-81
2022/11/29 05:48:44;;;;;;;42.75;31.85;;;4.40;1.00;;;;;;6265090;22;20189;-81
2022/11/29 05:51:24;;;;;;;43.00;31.13;;;4.40;1.00;;;;;;6293100;22;20232;-79
2022/11/29 05:54:23;;;;;;;46.20;32.28;;;4.40;1.00;;;;;;6248418;22;20225;-80
2022/11/29 05:57:13;;;;;;;48.83;31.75;;;4.40;1.00;;;;;;6260235;22;20221;-79
2022/11/29 05:59:54;;;;;;;43.50;31.27;;;4.20;1.00;;;;;;6259340;22;20280;-79
2022/11/29 06:05:38;;;;;;;44.95;32.55;;;4.20;1.00;;;;;;6260589;22;20296;-79
2022/11/29 06:08:13;;;;;;;44.80;30.67;;;4.10;1.00;;;;;;6287812;22;20216;-81
2022/11/29 06:10:45;;;;;;;46.35;33.08;;;4.20;1.00;;;;;;6276794;22;20299;-81
2022/11/29 06:13:35;;;;;;;38.65;30.80;;;4.10;1.00;;;;;;6295427;22;20213;-82
2022/11/29 06:16:29;;;;;;;50.88;31.92;;;4.20;1.00;;;;;;6288960;22;20192;-79
2022/11/29 06:20:07;;;;;;;42.42;30.60;;;4.20;1.00;;;;;;6286040;22;20219;-79
2022/11/29 06:23:05;;;;;;;40.90;32.20;;;4.20;1.00;;;;;;6289162;22;20224;-81
2022/11/29 06:26:06;;;;;;;44.38;30.75;;;4.30;1.00;;;;;;6276641;22;20210;-77
2022/11/29 06:29:00;;;;;;;52.47;32.35;;;4.30;1.00;;;;;;6289053;22;20197;-79
2022/11/29 06:31:36;;;;;;;42.80;32.45;;;4.40;1.00;;;;;;6290734;22;20213;-81
2022/11/29 06:34:17;;;;;;;44.28;32.65;;;4.30;1.00;;;;;;6291028;22;20209;-79
2022/11/29 06:36:51;;;;;;;48.15;31.15;;;4.30;1.00;;;;;;6293065;22;20217;-80
2022/11/29 06:39:25;;;;;;;44.92;31.25;;;4.40;1.00;;;;;;6253332;22;20212;-79
2022/11/29 06:41:55;;;;;;;45.13;33.60;;;4.40;1.00;;;;;;6292034;22;20218;-83
2022/11/29 06:44:30;;;;;;;46.30;31.70;;;4.40;1.00;;;;;;6294309;22;20214;-80
2022/11/29 06:47:05;;;;;;;52.40;34.42;;;4.40;1.00;;;;;;6289727;22;20937;-82
2022/11/29 06:49:49;;;;;;;42.95;31.45;;;4.40;1.00;;;;;;6292132;22;20219;-85
2022/11/29 06:55:46;;;;;;;43.33;30.95;;;4.50;1.00;;;;;;6274166;22;20676;-83
2022/11/29 06:58:32;;;;;;;46.10;32.30;;;4.60;1.00;;;;;;6280621;22;20297;-82
2022/11/29 07:01:10;;;;;;;45.13;31.42;;;4.60;1.00;;;;;;6294149;22;21040;-83
2022/11/29 07:04:04;;;;;;;40.17;29.25;;;4.60;1.00;;;;;;6290420;22;20242;-82
2022/11/29 07:06:34;;;;;;;45.33;31.55;;;4.50;1.00;;;;;;6293029;22;20238;-83
2022/11/29 07:09:15;;;;;;;47.25;31.10;;;4.50;1.00;;;;;;6291318;22;20346;-82
2022/11/29 07:11:48;;;;;;;41.53;29.38;;;4.50;1.00;;;;;;6290616;22;20265;-82
2022/11/29 07:14:16;;;;;;;43.42;31.13;;;4.60;1.00;;;;;;6293075;22;20216;-83
2022/11/29 07:16:52;;;;;;;42.00;31.63;;;4.60;1.00;;;;;;6276165;22;20213;-82
2022/11/29 07:19:39;;;;;;;44.30;31.63;;;4.60;1.00;;;;;;6288446;22;20202;-84
2022/11/29 07:22:19;;;;;;;41.13;30.52;;;4.60;1.00;;;;;;6289594;22;20205;-82
2022/11/29 07:25:04;;;;;;;44.35;30.65;;;4.60;1.00;;;;;;6289218;22;20312;-84
2022/11/29 07:27:47;;;;;;;50.45;38.38;;;4.60;1.00;;;;;;6290849;22;20915;-83
2022/11/29 07:30:22;;;;;;;42.97;31.17;;;4.60;1.00;;;;;;6286165;22;20219;-81
2022/11/29 07:33:05;;;;;;;46.47;30.80;;;4.70;1.00;;;;;;6286098;22;20275;-81
2022/11/29 07:35:45;;;;;;;45.15;30.48;;;4.70;1.00;;;;;;6290987;22;20207;-81
2022/11/29 07:38:25;;;;;;;41.67;29.45;;;4.80;1.00;;;;;;6265216;22;20261;-80
2022/11/29 07:40:59;;;;;;;45.85;31.35;;;4.80;1.00;;;;;;6290890;22;20245;-79
2022/11/29 07:43:49;;;;;;;;;;;;;;;;;;;;;
2022/11/29 07:46:16;;;;;;;39.40;28.20;;;4.80;1.00;;;;;;6288133;22;49252;-80
2022/11/29 07:48:46;;;;;;;48.65;31.77;;;4.70;1.00;;;;;;6290032;22;20201;-81
2022/11/29 07:51:19;;;;;;;43.42;28.65;;;4.70;1.00;;;;;;6275261;22;20769;-79
2022/11/29 07:56:34;;;;;;;43.05;29.55;;;4.70;1.00;;;;;;6280410;22;20243;-82
2022/11/29 07:59:17;;;;;;;45.70;30.90;;;4.80;1.00;;;;;;6278061;22;20219;-80
2022/11/29 08:01:46;;;;;;;38.97;28.50;;;4.90;1.00;;;;;;6273631;22;20693;-79
2022/11/29 08:04:12;;;;;;;42.78;30.98;;;4.90;1.00;;;;;;6289253;22;20284;-79
2022/11/29 08:06:44;;;;;;;44.20;29.85;;;4.90;1.00;;;;;;6290638;22;20214;-84
2022/11/29 08:09:13;;;;;;;40.47;28.90;;;4.90;1.00;;;;;;6293287;22;20211;-80
2022/11/29 08:11:49;;;;;;;48.90;30.58;;;4.90;1.00;;;;;;6279125;22;20686;-82
2022/11/29 08:14:24;;;;;;;42.08;29.60;;;4.70;1.00;;;;;;6294149;22;20204;-82
2022/11/29 08:16:58;;;;;;;41.88;29.80;;;4.70;1.00;;;;;;6291976;22;20259;-84
2022/11/29 08:19:26;;;;;;;40.63;28.48;;;4.90;1.00;;;;;;6290551;22;20904;-81
2022/11/29 08:21:53;;;;;;;40.92;30.38;;;5.00;1.00;;;;;;6292086;22;20218;-82
2022/11/29 08:24:26;;;;;;;38.80;29.65;;;5.10;1.00;;;;;;6294309;22;20272;-81
2022/11/29 08:26:54;;;;;;;43.75;29.55;;;5.10;1.00;;;;;;6289967;22;20222;-79
2022/11/29 08:29:30;;;;;;;42.00;29.10;;;5.20;1.00;;;;;;6279396;22;20240;-81
2022/11/29 08:32:01;;;;;;;42.00;28.52;;;5.30;1.00;;;;;;6276646;22;20222;-80
2022/11/29 08:34:28;;;;;;;115.88;51.88;;;5.40;1.00;;;;;;6291563;22;20287;-79
2022/11/29 08:36:56;;;;;;;43.08;29.00;;;5.50;1.00;;;;;;6291044;22;20223;-83
2022/11/29 08:39:26;;;;;;;39.03;27.67;;;5.60;1.00;;;;;;6291079;22;20208;-80
2022/11/29 08:41:53;;;;;;;40.15;28.48;;;5.60;1.00;;;;;;6277040;22;20215;-81
2022/11/29 08:44:25;;;;;;;43.67;30.10;;;5.60;1.00;;;;;;6289147;22;20223;-80
2022/11/29 08:49:59;;;;;;;39.97;29.33;;;5.50;1.00;;;;;;6288187;22;20218;-81
2022/11/29 08:55:12;;;;;;;44.60;30.92;;;5.60;1.00;;;;;;6291523;22;20214;-77
2022/11/29 08:57:45;;;;;;;44.47;31.50;;;5.30;1.00;;;;;;6292871;22;21001;-78
2022/11/29 09:00:20;;;;;;;43.95;29.05;;;5.40;1.00;;;;;;6289099;22;20212;-79
2022/11/29 09:02:49;;;;;;;43.65;30.27;;;5.50;1.00;;;;;;6286414;22;20211;-77
2022/11/29 09:05:17;;;;;;;36.05;26.83;;;5.60;1.00;;;;;;6285250;22;20221;-77
2022/11/29 09:07:46;;;;;;;40.42;28.42;;;5.60;1.00;;;;;;6282656;22;20211;-77
2022/11/29 09:10:13;;;;;;;44.97;29.02;;;5.80;1.00;;;;;;6284491;22;20246;-77
2022/11/29 09:12:43;;;;;;;42.67;29.00;;;5.90;1.00;;;;;;6285404;22;20226;-79
2022/11/29 09:15:16;;;;;;;41.88;27.90;;;5.90;1.00;;;;;;6286302;22;20210;-78
2022/11/29 09:17:46;;;;;;;43.75;30.10;;;5.80;1.00;;;;;;6283661;22;20203;-78
2022/11/29 09:20:14;;;;;;;40.75;29.02;;;5.80;1.00;;;;;;6284247;22;20227;-79
2022/11/29 09:22:49;;;;;;;38.92;27.00;;;5.90;1.00;;;;;;6267863;22;20233;-81
2022/11/29 09:25:17;;;;;;;40.97;29.27;;;6.00;1.00;;;;;;6290047;22;20211;-81
2022/11/29 09:27:46;;;;;;;38.08;26.50;;;6.20;1.00;;;;;;6288861;22;20584;-79
2022/11/29 09:30:14;;;;;;;44.42;30.08;;;5.90;1.00;;;;;;6291073;22;20217;-80
2022/11/29 09:32:47;;;;;;;37.72;27.40;;;6.10;1.00;;;;;;6287845;22;20208;-84
2022/11/29 09:35:16;;;;;;;46.05;29.00;;;6.10;1.00;;;;;;6290011;22;20215;-79
2022/11/29 09:37:47;;;;;;;54.70;33.50;;;6.20;1.00;;;;;;6289630;22;20229;-80
2022/11/29 09:40:18;;;;;;;46.70;30.08;;;6.30;1.00;;;;;;6289817;22;20219;-78
2022/11/29 09:42:55;;;;;;;43.08;29.25;;;6.40;1.00;;;;;;6276691;22;20219;-84
2022/11/29 09:45:33;;;;;;;41.85;29.35;;;6.30;1.00;;;;;;6283521;22;20214;-81
2022/11/29 09:48:31;;;;;;;38.22;26.92;;;6.50;1.00;;;;;;6283696;22;20250;-82
2022/11/29 09:51:13;;;;;;;40.05;28.45;;;6.60;1.00;;;;;;6282494;22;20214;-81
2022/11/29 09:54:05;;;;;;;43.25;30.25;;;6.50;1.00;;;;;;6287645;22;20259;-80
2022/11/29 09:56:47;;;;;;;39.08;29.85;;;6.50;1.00;;;;;;6256362;22;20204;-80
2022/11/29 09:59:29;;;;;;;50.22;30.67;;;6.40;1.00;;;;;;6235348;22;20221;-81
2022/11/29 10:02:03;;;;;;;40.40;28.35;;;6.40;1.00;;;;;;6272107;22;20605;-81
2022/11/29 10:04:36;;;;;;;39.13;28.70;;;6.50;1.00;;;;;;6288399;22;21026;-81
2022/11/29 10:07:08;;;;;;;44.60;28.63;;;6.60;1.00;;;;;;6285479;22;20212;-80
2022/11/29 10:09:40;;;;;;;45.28;29.00;;;6.60;1.00;;;;;;6285269;22;20220;-81
2022/11/29 10:12:16;;;;;;;50.47;30.67;;;6.40;1.00;;;;;;6270551;22;20222;-82
2022/11/29 10:14:47;;;;;;;37.85;27.67;;;6.40;1.00;;;;;;6285149;22;20222;-81
2022/11/29 10:17:25;;;;;;;43.58;28.75;;;6.30;1.00;;;;;;6284921;22;20224;-82
2022/11/29 10:19:57;;;;;;;45.17;30.20;;;6.30;1.00;;;;;;6283106;22;20326;-79
2022/11/29 10:22:34;;;;;;;42.53;29.92;;;6.40;1.00;;;;;;6286946;22;20203;-80
2022/11/29 10:25:02;;;;;;;40.10;29.05;;;6.40;1.00;;;;;;6285051;22;20917;-80
2022/11/29 10:27:32;;;;;;;42.53;29.35;;;6.40;1.00;;;;;;6287580;22;20924;-83
2022/11/29 10:30:01;;;;;;;41.90;27.80;;;6.40;1.00;;;;;;6269837;22;20228;-81
2022/11/29 10:32:31;;;;;;;40.78;29.85;;;6.30;1.00;;;;;;6286582;22;20215;-82
2022/11/29 10:34:59;;;;;;;43.50;29.33;;;6.20;1.00;;;;;;6285010;22;20212;-80
2022/11/29 10:37:31;;;;;;;39.47;29.42;;;6.30;1.00;;;;;;6286821;22;20234;-79
2022/11/29 10:40:03;;;;;;;42.00;29.42;;;6.30;1.00;;;;;;6287078;22;20380;-80
2022/11/29 10:42:51;;;;;;;45.88;29.92;;;6.20;1.00;;;;;;6287892;22;20225;-80
2022/11/29 10:45:32;;;;;;;39.47;29.30;;;6.30;1.00;;;;;;6296083;22;20230;-80
2022/11/29 10:48:06;;;;;;;56.70;32.60;;;6.20;1.00;;;;;;6292252;22;20260;-81
2022/11/29 10:50:41;;;;;;;43.70;29.60;;;6.30;1.00;;;;;;6279230;22;20206;-81
2022/11/29 10:53:17;;;;;;;41.03;29.65;;;6.40;1.00;;;;;;6277334;22;20214;-78
2022/11/29 10:55:48;;;;;;;43.20;30.48;;;6.50;1.00;;;;;;6259138;22;20215;-80
2022/11/29 10:58:22;;;;;;;38.13;27.70;;;6.30;1.00;;;;;;6288821;22;20214;-78
2022/11/29 11:01:05;;;;;;;40.67;28.67;;;6.30;1.00;;;;;;6272978;22;20225;-80
2022/11/29 11:03:40;;;;;;;39.95;29.45;;;6.20;1.00;;;;;;6291529;22;20270;-80
2022/11/29 11:06:19;;;;;;;41.72;28.85;;;6.30;1.00;;;;;;6285266;22;20300;-78
2022/11/29 11:09:17;;;;;;;39.47;28.83;;;6.30;1.00;;;;;;6291972;22;20215;-78
2022/11/29 11:12:00;;;;;;;42.63;28.40;;;6.40;1.00;;;;;;6275238;22;20212;-79
2022/11/29 11:14:29;;;;;;;41.50;29.35;;;6.40;1.00;;;;;;6198862;23;20214;-84
2022/11/29 11:17:28;;;;;;;40.47;29.35;;;6.40;1.00;;;;;;6178627;23;20219;-82
2022/11/29 11:20:07;;;;;;;42.65;29.20;;;6.40;1.00;;;;;;6214170;23;20211;-78
2022/11/29 11:22:45;;;;;;;46.35;31.48;;;6.40;1.00;;;;;;6235612;23;20204;-78
2022/11/29 11:25:39;;;;;;;43.97;29.33;;;6.40;1.00;;;;;;6194538;23;20228;-80
2022/11/29 11:28:16;;;;;;;42.92;29.02;;;6.40;1.00;;;;;;6216957;23;20268;-78
2022/11/29 11:30:55;;;;;;;42.67;30.58;;;6.50;1.00;;;;;;6229489;23;20335;-77
2022/11/29 11:33:28;;;;;;;39.67;28.48;;;6.50;1.00;;;;;;6230129;23;20919;-79
2022/11/29 11:36:10;;;;;;;40.65;29.33;;;6.40;1.00;;;;;;6228956;23;20221;-78
2022/11/29 11:38:39;;;;;;;43.15;30.77;;;6.30;1.00;;;;;;6191959;23;20208;-80
2022/11/29 11:44:32;;;;;;;42.85;28.05;;;6.30;1.00;;;;;;6143204;23;20247;-81
2022/11/29 11:47:08;;;;;;;42.47;29.92;;;6.30;1.00;;;;;;6225667;23;20225;-79
2022/11/29 11:49:39;;;;;;;41.38;29.45;;;6.30;1.00;;;;;;6229632;23;20205;-80
2022/11/29 11:52:20;;;;;;;43.85;29.83;;;6.30;1.00;;;;;;6229184;23;20206;-80
2022/11/29 11:54:54;;;;;;;44.75;32.00;;;6.40;1.00;;;;;;6231390;23;20241;-78
2022/11/29 11:57:29;;;;;;;47.90;30.25;;;6.50;1.00;;;;;;6229331;23;20228;-81
2022/11/29 11:59:59;;;;;;;41.25;28.42;;;6.50;1.00;;;;;;6228362;23;20216;-78
2022/11/29 12:02:38;;;;;;;41.85;29.73;;;6.60;1.00;;;;;;6227654;23;20213;-77
2022/11/29 12:05:19;;;;;;;44.67;30.88;;;6.60;1.00;;;;;;6227240;23;20195;-79
2022/11/29 12:07:56;;;;;;;43.13;30.20;;;6.70;1.00;;;;;;6230626;23;20237;-78
2022/11/29 12:10:33;;;;;;;42.67;30.70;;;6.70;1.00;;;;;;6229693;23;20212;-82
2022/11/29 12:13:03;;;;;;;45.47;32.20;;;6.80;1.00;;;;;;6243257;22;20226;-82
2022/11/29 12:15:34;;;;;;;43.78;30.27;;;6.60;1.00;;;;;;6219446;22;20401;-81
2022/11/29 12:18:11;;;;;;;41.90;29.98;;;6.50;1.00;;;;;;6257309;22;20213;-77
2022/11/29 12:20:42;;;;;;;41.10;28.73;;;6.50;1.00;;;;;;6257457;22;20288;-78
2022/11/29 12:23:29;;;;;;;46.85;32.75;;;6.50;1.00;;;;;;6260257;22;20299;-80
2022/11/29 12:26:00;;;;;;;44.78;32.60;;;6.50;1.00;;;;;;6258783;22;20844;-81
2022/11/29 12:28:39;;;;;;;51.55;35.53;;;6.40;1.00;;;;;;6259711;22;20270;-78
2022/11/29 12:31:32;;;;;;;63.60;40.30;;;6.40;1.00;;;;;;6239286;22;20208;-78
2022/11/29 12:34:18;;;;;;;66.18;39.45;;;6.50;1.00;;;;;;6225603;22;20215;-78
2022/11/29 12:37:09;;;;;;;53.08;35.90;;;6.50;1.00;;;;;;6243642;22;20220;-79
2022/11/29 12:39:56;;;;;;;45.28;33.70;;;6.50;1.00;;;;;;6261692;22;20212;-80
2022/11/29 12:42:48;;;;;;;53.55;33.67;;;6.50;1.00;;;;;;6261239;22;20245;-81
2022/11/29 12:45:36;;;;;;;47.38;31.63;;;6.50;1.00;;;;;;6258665;22;20230;-78
2022/11/29 12:48:15;;;;;;;50.05;32.35;;;6.50;1.00;;;;;;6258640;22;20215;-77
2022/11/29 12:50:55;;;;;;;44.00;31.42;;;6.60;1.00;;;;;;6257841;22;20218;-77
2022/11/29 12:53:39;;;;;;;46.50;31.73;;;6.60;1.00;;;;;;6259509;22;20214;-77
2022/11/29 12:56:14;;;;;;;46.20;30.98;;;6.60;1.00;;;;;;6255308;22;20203;-81
2022/11/29 12:58:54;;;;;;;45.22;32.03;;;6.70;1.00;;;;;;6254028;22;20962;-77
2022/11/29 13:01:32;;;;;;;45.25;31.35;;;6.70;1.00;;;;;;6253135;22;20209;-79
2022/11/29 13:04:16;;;;;;;50.30;32.22;;;6.60;1.00;;;;;;6251567;22;20237;-79
2022/11/29 13:06:55;;;;;;;45.92;31.48;;;6.60;1.00;;;;;;6252060;22;20325;-77
2022/11/29 13:09:50;;;;;;;43.63;31.58;;;6.50;1.00;;;;;;6255743;22;20225;-79
2022/11/29 13:12:26;;;;;;;46.67;32.55;;;6.40;1.00;;;;;;6253980;22;20209;-77
2022/11/29 13:14:59;;;;;;;49.28;33.22;;;6.40;1.00;;;;;;6255066;22;20215;-78
2022/11/29 13:17:34;;;;;;;43.60;31.92;;;6.40;1.00;;;;;;6257407;22;20244;-77
2022/11/29 13:20:13;;;;;;;44.50;33.70;;;6.40;1.00;;;;;;6252422;22;20212;-78
2022/11/29 13:22:55;;;;;;;47.90;32.25;;;6.30;1.00;;;;;;6252536;22;20221;-76
2022/11/29 13:25:27;;;;;;;46.38;31.40;;;6.30;1.00;;;;;;6253601;22;20212;-77
2022/11/29 13:27:58;;;;;;;49.67;33.22;;;6.40;1.00;;;;;;6251321;22;20220;-78
2022/11/29 13:30:27;;;;;;;42.72;30.92;;;6.40;1.00;;;;;;6251459;22;20218;-77
2022/11/29 13:33:02;;;;;;;47.65;32.33;;;6.40;1.00;;;;;;6250508;22;20217;-78
2022/11/29 13:35:38;;;;;;;47.78;33.72;;;6.40;1.00;;;;;;6252981;22;20284;-77
2022/11/29 13:38:16;;;;;;;51.55;33.75;;;6.40;1.00;;;;;;6256529;22;20238;-77
2022/11/29 13:40:59;;;;;;;50.00;32.35;;;6.40;1.00;;;;;;6259406;22;20218;-79
2022/11/29 13:43:36;;;;;;;48.35;33.38;;;6.40;1.00;;;;;;6221242;22;20280;-81
2022/11/29 13:46:17;;;;;;;40.50;31.50;;;6.30;1.00;;;;;;6259136;22;20213;-81
2022/11/29 13:48:54;;;;;;;46.45;34.40;;;6.30;1.00;;;;;;6257652;22;20218;-79
2022/11/29 13:51:31;;;;;;;43.22;32.65;;;6.30;1.00;;;;;;6261651;22;20751;-79
2022/11/29 13:54:01;;;;;;;42.47;30.75;;;6.30;1.00;;;;;;6258788;22;20223;-79
2022/11/29 13:56:45;;;;;;;48.85;33.30;;;6.30;1.00;;;;;;6259623;22;20242;-77
2022/11/29 13:59:31;;;;;;;50.25;34.13;;;6.30;1.00;;;;;;6259242;22;20216;-76
2022/11/29 14:01:58;;;;;;;51.92;33.40;;;6.30;1.00;;;;;;6261223;22;20669;-80
2022/11/29 14:04:35;;;;;;;47.55;33.47;;;6.20;1.00;;;;;;6262334;22;20219;-81